createdAt,value
2018-03-28T00:02:07.300Z,5.61
2018-03-28T00:04:36.256Z,5.58
2018-03-28T00:07:05.002Z,5.60
2018-03-28T00:09:33.331Z,5.66
2018-03-28T00:12:03.877Z,5.65
2018-03-28T00:14:34.133Z,5.68
2018-03-28T00:17:04.489Z,5.73
2018-03-28T00:19:35.056Z,5.70
2018-03-28T00:22:05.203Z,5.72
2018-03-28T00:24:33.607Z,5.71
2018-03-28T00:27:02.276Z,5.68
2018-03-28T00:29:32.693Z,5.70
2018-03-28T00:32:01.066Z,5.68
2018-03-28T00:34:29.474Z,5.68
2018-03-28T00:36:57.859Z,5.76
2018-03-28T00:39:26.221Z,5.73
2018-03-28T00:41:54.618Z,5.78
2018-03-28T00:44:23.039Z,5.77
2018-03-28T00:46:55.703Z,5.78
2018-03-28T00:49:24.085Z,5.78
2018-03-28T00:51:52.477Z,5.76
2018-03-28T00:54:20.971Z,5.88
2018-03-28T00:56:49.348Z,5.81
2018-03-28T00:59:17.703Z,5.84
2018-03-28T01:01:46.113Z,5.80
2018-03-28T01:04:14.535Z,5.75
2018-03-28T01:06:47.079Z,5.79
2018-03-28T01:09:15.473Z,5.81
2018-03-28T01:11:44.521Z,5.79
2018-03-28T01:14:12.885Z,5.89
2018-03-28T01:16:41.271Z,5.89
2018-03-28T01:19:10.106Z,5.95
2018-03-28T01:21:38.510Z,5.92
2018-03-28T01:24:06.875Z,5.93
2018-03-28T01:26:35.267Z,5.85
2018-03-28T01:29:04.536Z,5.85
2018-03-28T01:31:35.023Z,5.87
2018-03-28T01:34:03.563Z,5.93
2018-03-28T01:36:34.026Z,5.90
2018-03-28T01:39:02.457Z,5.89
2018-03-28T01:41:32.851Z,5.96
2018-03-28T01:44:03.352Z,5.92
2018-03-28T01:46:32.477Z,5.95
2018-03-28T01:49:00.859Z,5.94
2018-03-28T01:51:29.229Z,5.91
2018-03-28T01:53:57.714Z,5.98
2018-03-28T01:56:32.226Z,5.98
2018-03-28T01:59:00.717Z,5.94
2018-03-28T02:01:30.170Z,6.00
2018-03-28T02:03:58.555Z,6.02
2018-03-28T02:06:26.977Z,6.02
2018-03-28T02:08:55.399Z,6.06
2018-03-28T02:11:23.843Z,6.10
2018-03-28T02:13:54.472Z,6.09
2018-03-28T02:16:22.885Z,6.08
2018-03-28T02:18:51.577Z,6.07
2018-03-28T02:21:21.989Z,6.09
2018-03-28T02:23:50.384Z,6.05
2018-03-28T02:26:20.863Z,6.10
2018-03-28T02:28:49.256Z,6.08
2018-03-28T02:31:17.693Z,6.15
2018-03-28T02:33:46.113Z,6.12
2018-03-28T02:36:14.610Z,6.05
2018-03-28T02:38:46.530Z,6.06
2018-03-28T02:41:15.254Z,6.15
2018-03-28T02:43:43.673Z,6.19
2018-03-28T02:46:12.111Z,6.20
2018-03-28T02:48:44.907Z,6.23
2018-03-28T02:51:14.928Z,6.25
2018-03-28T02:53:44.927Z,6.27
2018-03-28T02:56:15.332Z,6.27
2018-03-28T02:58:51.458Z,6.27
2018-03-28T03:01:19.870Z,6.27
2018-03-28T03:03:48.282Z,6.17
2018-03-28T03:06:16.704Z,6.20
2018-03-28T03:08:46.834Z,6.20
2018-03-28T03:11:15.253Z,6.35
2018-03-28T03:13:43.672Z,6.33
2018-03-28T03:16:14.328Z,6.34
2018-03-28T03:18:42.752Z,6.29
2018-03-28T03:21:11.245Z,6.37
2018-03-28T03:23:39.672Z,6.31
2018-03-28T03:26:08.088Z,6.27
2018-03-28T03:28:38.512Z,6.33
2018-03-28T03:31:14.269Z,6.35
2018-03-28T03:33:42.668Z,6.36
2018-03-28T03:36:11.106Z,6.35
2018-03-28T03:38:39.531Z,6.39
2018-03-28T03:41:10.018Z,6.42
2018-03-28T03:43:38.577Z,6.36
2018-03-28T03:46:09.080Z,6.38
2018-03-28T03:48:37.544Z,6.36
2018-03-28T03:51:05.998Z,6.37
2018-03-28T03:53:34.445Z,6.38
2018-03-28T03:56:02.864Z,6.41
2018-03-28T03:58:31.284Z,6.47
2018-03-28T04:00:59.733Z,6.47
2018-03-28T04:03:28.138Z,6.56
2018-03-28T04:06:00.600Z,6.58
2018-03-28T04:08:30.573Z,6.57
2018-03-28T04:11:01.016Z,6.55
2018-03-28T04:13:30.564Z,6.56
2018-03-28T04:15:58.973Z,6.61
2018-03-28T04:18:27.367Z,6.65
2018-03-28T04:20:56.066Z,6.65
2018-03-28T04:23:25.960Z,6.68
2018-03-28T04:25:54.401Z,6.62
2018-03-28T04:28:22.832Z,6.68
2018-03-28T04:30:51.315Z,6.73
2018-03-28T04:33:19.772Z,6.65
2018-03-28T04:35:50.200Z,6.59
2018-03-28T04:38:20.101Z,6.60
2018-03-28T04:40:48.617Z,6.61
2018-03-28T04:43:24.220Z,6.63
2018-03-28T04:45:52.734Z,6.65
2018-03-28T04:48:21.205Z,6.64
2018-03-28T04:50:49.796Z,6.60
2018-03-28T04:53:20.109Z,6.66
2018-03-28T04:55:48.635Z,6.58
2018-03-28T04:58:17.008Z,6.58
2018-03-28T05:00:46.897Z,6.63
2018-03-28T05:03:17.623Z,6.68
2018-03-28T05:05:45.988Z,6.66
2018-03-28T05:08:14.393Z,6.66
2018-03-28T05:10:42.823Z,6.66
2018-03-28T05:13:11.241Z,6.67
2018-03-28T05:15:39.702Z,6.66
2018-03-28T05:18:11.664Z,6.63
2018-03-28T05:20:41.583Z,6.72
2018-03-28T05:23:10.017Z,6.72
2018-03-28T05:25:38.452Z,6.74
2018-03-28T05:28:08.838Z,6.76
2018-03-28T05:30:37.240Z,6.70
2018-03-28T05:33:09.415Z,6.78
2018-03-28T05:35:37.804Z,6.83
2018-03-28T05:38:06.293Z,6.70
2018-03-28T05:40:36.705Z,6.74
2018-03-28T05:43:05.177Z,6.80
2018-03-28T05:45:33.623Z,6.78
2018-03-28T05:48:02.045Z,6.81
2018-03-28T05:50:30.525Z,6.93
2018-03-28T05:53:00.468Z,6.78
2018-03-28T05:55:28.943Z,6.79
2018-03-28T05:57:57.374Z,6.87
2018-03-28T06:00:25.810Z,6.86
2018-03-28T06:02:54.229Z,6.95
2018-03-28T06:05:22.658Z,6.98
2018-03-28T06:07:51.094Z,6.94
2018-03-28T06:10:20.909Z,6.95
2018-03-28T06:12:53.241Z,7.07
2018-03-28T06:15:23.216Z,6.96
2018-03-28T06:17:51.625Z,7.01
2018-03-28T06:20:20.047Z,6.90
2018-03-28T06:22:48.497Z,6.97
2018-03-28T06:25:16.999Z,6.99
2018-03-28T06:27:45.413Z,6.99
2018-03-28T06:30:14.127Z,7.04
2018-03-28T06:32:43.932Z,7.26
2018-03-28T06:35:12.355Z,7.30
2018-03-28T06:37:40.791Z,7.49
2018-03-28T06:40:09.793Z,7.52
2018-03-28T06:42:38.208Z,7.49
2018-03-28T06:45:06.650Z,7.45
2018-03-28T06:47:35.070Z,7.63
2018-03-28T06:50:03.577Z,7.76
2018-03-28T06:52:32.051Z,7.80
2018-03-28T06:55:00.481Z,7.99
2018-03-28T06:57:30.942Z,8.04
2018-03-28T06:59:59.449Z,8.12
2018-03-28T07:02:27.852Z,8.13
2018-03-28T07:04:56.314Z,8.34
2018-03-28T07:07:24.712Z,8.49
2018-03-28T07:09:53.148Z,8.66
2018-03-28T07:12:22.209Z,9.03
2018-03-28T07:14:50.611Z,9.37
2018-03-28T07:17:19.027Z,9.63
2018-03-28T07:19:47.392Z,9.75
2018-03-28T07:22:17.172Z,9.92
2018-03-28T07:24:45.662Z,9.81
2018-03-28T07:27:14.417Z,10.11
2018-03-28T07:29:46.633Z,10.16
2018-03-28T07:32:16.114Z,10.63
2018-03-28T07:34:44.529Z,10.72
2018-03-28T07:37:14.389Z,10.97
2018-03-28T07:39:42.808Z,11.34
2018-03-28T07:42:12.610Z,11.88
2018-03-28T07:44:42.373Z,11.57
2018-03-28T07:47:12.103Z,11.37
2018-03-28T07:49:40.541Z,11.28
2018-03-28T07:52:09.314Z,11.58
2018-03-28T07:54:37.670Z,11.89
2018-03-28T07:57:06.111Z,12.10
2018-03-28T07:59:34.549Z,12.11
2018-03-28T08:02:06.165Z,12.02
2018-03-28T08:04:34.585Z,12.03
2018-03-28T08:07:09.168Z,12.16
2018-03-28T08:09:39.287Z,11.93
2018-03-28T08:12:08.945Z,12.13
2018-03-28T08:14:39.244Z,12.36
2018-03-28T08:17:07.684Z,12.37
2018-03-28T08:19:37.149Z,12.87
2018-03-28T08:22:05.632Z,12.89
2018-03-28T08:24:34.085Z,12.59
2018-03-28T08:27:03.714Z,12.43
2018-03-28T08:29:32.202Z,12.80
2018-03-28T08:32:02.014Z,13.27
2018-03-28T08:34:30.446Z,13.88
2018-03-28T08:37:00.351Z,14.28
2018-03-28T08:39:28.801Z,14.30
2018-03-28T08:41:57.291Z,14.40
2018-03-28T08:44:26.824Z,14.56
2018-03-28T08:46:57.602Z,14.58
2018-03-28T08:49:27.017Z,14.19
2018-03-28T08:51:56.928Z,13.79
2018-03-28T08:54:26.721Z,13.04
2018-03-28T08:56:56.672Z,12.17
2018-03-28T08:59:26.431Z,12.09
2018-03-28T09:01:56.707Z,12.71
2018-03-28T09:04:25.154Z,12.86
2018-03-28T09:06:54.566Z,12.87
2018-03-28T09:09:25.461Z,12.55
2018-03-28T09:11:54.861Z,13.07
2018-03-28T09:14:24.154Z,13.82
2018-03-28T09:16:53.957Z,13.68
2018-03-28T09:19:23.448Z,13.27
2018-03-28T09:21:51.869Z,13.18
2018-03-28T09:24:20.276Z,12.89
2018-03-28T09:26:48.696Z,12.79
2018-03-28T09:29:17.128Z,12.12
2018-03-28T09:31:45.769Z,11.86
2018-03-28T09:34:14.182Z,11.60
2018-03-28T09:36:43.590Z,11.52
2018-03-28T09:39:12.026Z,11.36
2018-03-28T09:41:41.505Z,11.33
2018-03-28T09:44:09.921Z,11.14
2018-03-28T09:46:38.346Z,11.08
2018-03-28T09:49:08.193Z,10.99
2018-03-28T09:51:36.617Z,10.80
2018-03-28T09:54:08.673Z,10.83
2018-03-28T09:56:37.077Z,10.69
2018-03-28T09:59:09.280Z,10.74
2018-03-28T10:01:37.741Z,10.56
2018-03-28T10:04:12.098Z,10.43
2018-03-28T10:06:42.311Z,10.38
2018-03-28T10:09:10.810Z,10.43
2018-03-28T10:11:39.229Z,10.37
2018-03-28T10:14:07.701Z,10.48
2018-03-28T10:16:38.054Z,10.41
2018-03-28T10:19:06.572Z,10.46
2018-03-28T10:21:34.989Z,10.51
2018-03-28T10:24:03.490Z,10.64
2018-03-28T10:26:31.965Z,10.47
2018-03-28T10:29:01.908Z,10.70
2018-03-28T10:31:31.598Z,10.73
2018-03-28T10:34:00.025Z,10.76
2018-03-28T10:36:28.495Z,10.68
2018-03-28T10:39:01.479Z,10.63
2018-03-28T10:41:29.942Z,10.70
2018-03-28T10:43:58.374Z,10.64
2018-03-28T10:46:29.424Z,10.59
2018-03-28T10:48:57.879Z,10.45
2018-03-28T10:51:26.294Z,10.46
2018-03-28T10:53:56.358Z,10.74
2018-03-28T10:56:24.861Z,10.86
2018-03-28T10:58:53.257Z,11.01
2018-03-28T11:01:21.688Z,10.83
2018-03-28T11:03:50.197Z,10.74
2018-03-28T11:06:18.696Z,10.69
2018-03-28T11:08:47.126Z,10.74
2018-03-28T11:11:15.537Z,10.81
2018-03-28T11:13:43.924Z,11.06
2018-03-28T11:16:13.562Z,11.18
2018-03-28T11:18:42.049Z,11.04
2018-03-28T11:21:11.863Z,11.32
2018-03-28T11:23:40.414Z,11.35
2018-03-28T11:26:08.919Z,11.49
2018-03-28T11:28:37.325Z,11.50
2018-03-28T11:31:05.822Z,11.63
2018-03-28T11:33:34.248Z,11.56
2018-03-28T11:36:03.089Z,11.62
2018-03-28T11:38:31.554Z,11.48
2018-03-28T11:41:00.053Z,11.30
2018-03-28T11:43:29.922Z,11.53
2018-03-28T11:45:58.426Z,11.52
2018-03-28T11:48:26.861Z,11.57
2018-03-28T11:50:55.254Z,11.96
2018-03-28T11:53:25.029Z,12.12
2018-03-28T11:55:54.536Z,12.38
2018-03-28T11:58:23.841Z,12.33
2018-03-28T12:00:53.566Z,12.36
2018-03-28T12:03:22.009Z,12.43
2018-03-28T12:05:50.566Z,12.57
2018-03-28T12:08:19.006Z,12.82
2018-03-28T12:10:47.442Z,12.92
2018-03-28T12:13:17.097Z,12.97
2018-03-28T12:15:45.575Z,12.85
2018-03-28T12:18:16.551Z,12.81
2018-03-28T12:20:45.046Z,13.02
2018-03-28T12:23:13.490Z,13.07
2018-03-28T12:25:42.996Z,12.97
2018-03-28T12:28:11.419Z,12.85
2018-03-28T12:30:40.034Z,13.04
2018-03-28T12:33:08.454Z,13.29
2018-03-28T12:35:36.921Z,13.51
2018-03-28T12:38:05.380Z,13.49
2018-03-28T12:40:34.769Z,13.57
2018-03-28T12:43:04.603Z,13.40
2018-03-28T12:45:33.062Z,13.21
2018-03-28T12:48:01.490Z,13.01
2018-03-28T12:50:31.646Z,13.14
2018-03-28T12:53:01.139Z,12.91
2018-03-28T12:55:29.667Z,12.99
2018-03-28T12:57:59.341Z,13.04
2018-03-28T13:00:29.320Z,13.10
2018-03-28T13:02:59.137Z,13.06
2018-03-28T13:05:27.641Z,13.06
2018-03-28T13:07:56.142Z,13.06
2018-03-28T13:10:25.950Z,12.92
2018-03-28T13:12:54.341Z,12.83
2018-03-28T13:15:22.761Z,12.74
2018-03-28T13:17:52.501Z,12.53
2018-03-28T13:20:20.920Z,12.42
2018-03-28T13:22:49.337Z,12.26
2018-03-28T13:25:17.813Z,12.04
2018-03-28T13:27:46.249Z,12.03
2018-03-28T13:30:14.681Z,12.02
2018-03-28T13:32:44.626Z,12.09
2018-03-28T13:35:16.069Z,11.98
2018-03-28T13:37:44.500Z,11.88
2018-03-28T13:40:12.969Z,11.72
2018-03-28T13:42:41.491Z,11.64
2018-03-28T13:45:09.986Z,11.55
2018-03-28T13:47:38.422Z,11.45
2018-03-28T13:50:08.483Z,11.49
2018-03-28T13:52:36.917Z,11.44
2018-03-28T13:55:08.226Z,11.15
2018-03-28T13:57:36.710Z,11.04
2018-03-28T14:00:05.304Z,10.98
2018-03-28T14:02:33.768Z,10.98
2018-03-28T14:05:02.222Z,10.95
2018-03-28T14:07:30.754Z,11.01
2018-03-28T14:09:59.237Z,10.91
2018-03-28T14:12:27.702Z,10.84
2018-03-28T14:14:57.988Z,10.77
2018-03-28T14:17:26.417Z,10.78
2018-03-28T14:19:58.370Z,10.86
2018-03-28T14:22:26.832Z,10.88
2018-03-28T14:24:55.286Z,10.70
2018-03-28T14:27:23.740Z,10.59
2018-03-28T14:29:54.198Z,10.61
2018-03-28T14:32:22.884Z,10.59
2018-03-28T14:34:51.313Z,10.64
2018-03-28T14:37:19.754Z,10.51
2018-03-28T14:39:48.185Z,10.47
2018-03-28T14:42:16.633Z,10.50
2018-03-28T14:44:45.410Z,10.35
2018-03-28T14:47:16.934Z,10.28
2018-03-28T14:49:50.532Z,10.42
2018-03-28T14:52:18.958Z,10.38
2018-03-28T14:54:47.373Z,10.52
2018-03-28T14:57:15.940Z,10.50
2018-03-28T14:59:44.361Z,10.40
2018-03-28T15:02:12.802Z,10.36
2018-03-28T15:04:41.251Z,10.32
2018-03-28T15:07:09.770Z,10.29
2018-03-28T15:09:38.214Z,10.24
2018-03-28T15:12:08.725Z,10.16
2018-03-28T15:14:39.276Z,10.08
2018-03-28T15:17:07.689Z,10.20
2018-03-28T15:19:36.165Z,10.20
2018-03-28T15:22:05.956Z,10.14
2018-03-28T15:24:34.460Z,10.17
2018-03-28T15:27:06.579Z,10.13
2018-03-28T15:29:35.065Z,10.10
2018-03-28T15:32:05.694Z,10.15
2018-03-28T15:34:34.189Z,10.12
2018-03-28T15:37:04.769Z,9.91
2018-03-28T15:39:33.785Z,9.91
2018-03-28T15:42:04.159Z,9.89
2018-03-28T15:44:32.606Z,9.93
2018-03-28T15:47:03.122Z,9.88
2018-03-28T15:49:34.266Z,9.93
2018-03-28T15:52:02.710Z,9.90
2018-03-28T15:54:32.080Z,9.86
2018-03-28T15:57:00.532Z,9.86
2018-03-28T15:59:29.155Z,9.87
2018-03-28T16:01:57.573Z,9.86
2018-03-28T16:04:28.170Z,9.79
2018-03-28T16:06:56.649Z,9.79
2018-03-28T16:09:27.087Z,9.80
2018-03-28T16:11:55.694Z,9.76
2018-03-28T16:14:24.143Z,9.69
2018-03-28T16:16:52.618Z,9.65
2018-03-28T16:19:21.228Z,9.61
2018-03-28T16:21:49.710Z,9.49
2018-03-28T16:24:18.157Z,9.66
2018-03-28T16:26:46.637Z,9.57
2018-03-28T16:29:15.232Z,9.53
2018-03-28T16:31:43.680Z,9.50
2018-03-28T16:34:12.122Z,9.46
2018-03-28T16:36:40.589Z,9.51
2018-03-28T16:39:09.046Z,9.47
2018-03-28T16:41:37.476Z,9.36
2018-03-28T16:44:05.954Z,9.36
2018-03-28T16:46:34.395Z,9.37
2018-03-28T16:49:02.989Z,9.41
2018-03-28T16:51:31.445Z,9.39
2018-03-28T16:53:59.911Z,9.35
2018-03-28T16:56:28.442Z,9.33
2018-03-28T16:58:59.003Z,9.36
2018-03-28T17:01:27.578Z,9.40
2018-03-28T17:03:58.171Z,9.28
2018-03-28T17:06:26.649Z,9.20
2018-03-28T17:08:55.085Z,9.25
2018-03-28T17:11:25.693Z,9.25
2018-03-28T17:13:54.121Z,9.26
2018-03-28T17:16:22.610Z,9.16
2018-03-28T17:18:51.112Z,9.10
2018-03-28T17:21:19.584Z,9.16
2018-03-28T17:23:48.043Z,9.20
2018-03-28T17:26:16.705Z,9.17
2018-03-28T17:28:45.162Z,9.16
2018-03-28T17:31:13.596Z,9.09
2018-03-28T17:33:44.210Z,9.15
2018-03-28T17:36:14.766Z,9.14
2018-03-28T17:38:43.250Z,9.13
2018-03-28T17:41:11.716Z,9.14
2018-03-28T17:43:40.221Z,9.15
2018-03-28T17:46:08.664Z,9.12
2018-03-28T17:48:37.388Z,9.12
2018-03-28T17:51:05.878Z,9.12
2018-03-28T17:53:34.336Z,9.23
2018-03-28T17:56:04.310Z,9.16
2018-03-28T17:58:35.483Z,9.17
2018-03-28T18:01:04.114Z,9.04
2018-03-28T18:03:34.477Z,9.07
2018-03-28T18:06:05.498Z,9.09
2018-03-28T18:08:33.966Z,9.08
2018-03-28T18:11:04.619Z,9.10
2018-03-28T18:13:35.333Z,9.03
2018-03-28T18:16:04.813Z,9.12
2018-03-28T18:18:33.454Z,9.09
2018-03-28T18:21:04.123Z,9.06
2018-03-28T18:23:32.626Z,9.10
2018-03-28T18:26:01.749Z,9.09
2018-03-28T18:28:30.376Z,9.13
2018-03-28T18:31:00.598Z,9.16
2018-03-28T18:33:29.392Z,9.16
2018-03-28T18:36:00.085Z,9.17
2018-03-28T18:38:29.046Z,9.20
2018-03-28T18:41:00.643Z,9.19
2018-03-28T18:43:29.129Z,9.18
2018-03-28T18:45:57.602Z,9.21
2018-03-28T18:48:26.094Z,9.16
2018-03-28T18:50:54.573Z,9.22
2018-03-28T18:53:23.026Z,9.24
2018-03-28T18:55:51.526Z,9.20
2018-03-28T18:58:20.005Z,9.18
2018-03-28T19:00:48.492Z,9.18
2018-03-28T19:03:16.966Z,9.22
2018-03-28T19:05:47.159Z,9.26
2018-03-28T19:08:15.645Z,9.27
2018-03-28T19:10:44.174Z,9.22
2018-03-28T19:13:12.669Z,9.23
2018-03-28T19:15:43.301Z,9.18
2018-03-28T19:18:11.822Z,9.21
2018-03-28T19:20:42.103Z,9.18
2018-03-28T19:23:10.801Z,9.13
2018-03-28T19:25:39.247Z,9.09
2018-03-28T19:28:09.890Z,9.07
2018-03-28T19:30:40.447Z,9.07
2018-03-28T19:33:08.969Z,9.02
2018-03-28T19:35:37.450Z,9.06
2018-03-28T19:38:05.959Z,9.07
2018-03-28T19:40:34.473Z,9.06
2018-03-28T19:43:02.929Z,9.02
2018-03-28T19:45:31.407Z,8.97
2018-03-28T19:47:59.890Z,8.93
2018-03-28T19:50:28.613Z,8.93
2018-03-28T19:52:57.098Z,8.81
2018-03-28T19:55:25.582Z,8.77
2018-03-28T19:57:54.071Z,8.80
2018-03-28T20:00:22.564Z,8.74
2018-03-28T20:02:52.853Z,8.76
2018-03-28T20:05:23.412Z,8.74
2018-03-28T20:07:51.888Z,8.64
2018-03-28T20:10:20.917Z,8.64
2018-03-28T20:12:51.520Z,8.54
2018-03-28T20:15:20.040Z,8.55
2018-03-28T20:17:48.526Z,8.58
2018-03-28T20:20:19.082Z,8.54
2018-03-28T20:22:47.600Z,8.51
2018-03-28T20:25:16.183Z,8.41
2018-03-28T20:27:47.091Z,8.33
2018-03-28T20:30:15.625Z,8.39
2018-03-28T20:32:44.128Z,8.36
2018-03-28T20:35:12.592Z,8.41
2018-03-28T20:37:41.144Z,8.41
2018-03-28T20:40:09.672Z,8.28
2018-03-28T20:42:38.244Z,8.34
2018-03-28T20:45:06.729Z,8.27
2018-03-28T20:47:33.375Z,8.32
2018-03-28T20:50:00.057Z,8.29
2018-03-28T20:52:27.460Z,8.25
2018-03-28T20:54:54.108Z,8.33
2018-03-28T20:57:20.723Z,8.31
2018-03-28T20:59:47.348Z,8.25
2018-03-28T21:02:13.938Z,8.28
2018-03-28T21:04:41.590Z,8.27
2018-03-28T21:07:08.178Z,8.22
2018-03-28T21:09:34.824Z,8.29
2018-03-28T21:12:01.475Z,8.33
2018-03-28T21:14:28.260Z,8.32
2018-03-28T21:16:54.858Z,8.35
2018-03-28T21:19:21.469Z,8.30
2018-03-28T21:21:48.097Z,8.23
2018-03-28T21:24:15.438Z,8.11
2018-03-28T21:26:42.819Z,8.00
2018-03-28T21:29:09.501Z,7.96
2018-03-28T21:31:36.157Z,7.88
2018-03-28T21:34:02.783Z,7.85
2018-03-28T21:36:30.185Z,7.68
2018-03-28T21:38:57.519Z,7.57
2018-03-28T21:41:25.531Z,7.56
2018-03-28T21:43:53.074Z,7.62
2018-03-28T21:46:19.736Z,7.49
2018-03-28T21:48:46.368Z,7.41
2018-03-28T21:51:12.959Z,7.32
2018-03-28T21:53:40.550Z,7.24
2018-03-28T21:56:08.159Z,7.29
2018-03-28T21:58:34.863Z,7.29
2018-03-28T22:01:01.460Z,7.23
2018-03-28T22:03:28.155Z,7.25
2018-03-28T22:05:54.738Z,7.19
2018-03-28T22:08:22.094Z,7.20
2018-03-28T22:10:48.776Z,7.17
2018-03-28T22:13:15.406Z,7.19
2018-03-28T22:15:42.050Z,7.19
2018-03-28T22:18:08.649Z,7.27
2018-03-28T22:20:35.241Z,7.25
2018-03-28T22:23:02.787Z,7.25
2018-03-28T22:25:29.418Z,7.22
2018-03-28T22:27:56.027Z,7.22
2018-03-28T22:30:22.686Z,7.21
2018-03-28T22:32:49.336Z,7.13
2018-03-28T22:35:15.938Z,7.13
2018-03-28T22:37:42.522Z,7.10
2018-03-28T22:40:09.113Z,7.15
2018-03-28T22:42:35.692Z,7.00
2018-03-28T22:45:02.353Z,7.04
2018-03-28T22:47:28.970Z,6.83
2018-03-28T22:49:55.560Z,6.91
2018-03-28T22:52:22.180Z,6.84
2018-03-28T22:54:48.789Z,6.85
2018-03-28T22:57:15.480Z,6.88
2018-03-28T22:59:42.068Z,6.91
2018-03-28T23:02:08.702Z,6.89
2018-03-28T23:04:36.171Z,6.95
2018-03-28T23:07:03.528Z,6.96
2018-03-28T23:09:30.932Z,6.95
2018-03-28T23:11:57.565Z,6.81
2018-03-28T23:14:24.166Z,6.82
2018-03-28T23:16:50.900Z,6.79
2018-03-28T23:19:17.514Z,6.84
2018-03-28T23:21:44.136Z,6.84
2018-03-28T23:24:10.789Z,6.62
2018-03-28T23:26:37.432Z,6.77
2018-03-28T23:29:04.162Z,6.77
2018-03-28T23:31:30.759Z,6.74
2018-03-28T23:33:57.423Z,6.71
2018-03-28T23:36:24.561Z,6.63
2018-03-28T23:38:51.218Z,6.71
2018-03-28T23:41:17.810Z,6.73
2018-03-28T23:43:44.398Z,6.67
2018-03-28T23:46:10.977Z,6.61
2018-03-28T23:48:38.394Z,6.56
2018-03-28T23:51:05.082Z,6.63
2018-03-28T23:53:31.715Z,6.59
2018-03-28T23:55:58.347Z,6.60
2018-03-28T23:58:24.938Z,6.60
